Time;durP1;ratioP1;P1;durP2;ratioP2;P2;SDS_P1;SDS_P2;PMS_P1;PMS_P2;Temp;Humidity;BMP_temperature;BMP_pressure;BME280_temperature;BME280_humidity;BME280_pressure;Samples;Min_cycle;Max_cycle;Signal;HPM_P1;HPM_P2
2022/11/20 00:00:54;;;;;;;31.85;18.95;;;-1.20;99.90;;;;;;5079951;28;20048;-71
2022/11/20 00:03:20;;;;;;;30.20;20.63;;;-1.10;99.90;;;;;;5076630;28;20068;-71
2022/11/20 00:05:46;;;;;;;31.25;20.20;;;-1.10;99.90;;;;;;5077665;28;20494;-71
2022/11/20 00:08:11;;;;;;;32.92;20.55;;;-1.10;99.90;;;;;;5075299;28;20036;-70
2022/11/20 00:10:38;;;;;;;30.05;20.73;;;-1.00;99.90;;;;;;5075199;28;20101;-71
2022/11/20 00:13:04;;;;;;;33.03;21.48;;;-1.00;99.90;;;;;;5080898;28;20046;-71
2022/11/20 00:15:29;;;;;;;36.00;22.33;;;-1.00;99.90;;;;;;5107618;28;20135;-71
2022/11/20 00:17:55;;;;;;;31.15;20.83;;;-1.00;99.90;;;;;;5080963;28;20132;-71
2022/11/20 00:20:21;;;;;;;34.50;22.20;;;-1.00;99.90;;;;;;5081881;28;20528;-71
2022/11/20 00:22:47;;;;;;;32.85;22.23;;;-1.00;99.90;;;;;;5072947;28;20048;-71
2022/11/20 00:25:13;;;;;;;31.52;22.35;;;-0.90;99.90;;;;;;5080193;28;20613;-71
2022/11/20 00:27:39;;;;;;;35.00;22.27;;;-0.90;99.90;;;;;;5121828;27;20121;-70
2022/11/20 00:30:05;;;;;;;33.65;21.33;;;-0.90;99.90;;;;;;5083140;28;20046;-71
2022/11/20 00:32:31;;;;;;;34.70;21.95;;;-0.90;99.90;;;;;;5079745;28;20131;-71
2022/11/20 00:34:56;;;;;;;29.80;20.45;;;-0.90;99.90;;;;;;5086507;28;20151;-71
2022/11/20 00:37:22;;;;;;;33.88;21.30;;;-0.80;99.90;;;;;;5080454;28;20048;-71
2022/11/20 00:39:47;;;;;;;31.80;20.92;;;-0.80;99.90;;;;;;5080053;28;20044;-71
2022/11/20 00:42:13;;;;;;;33.10;21.58;;;-0.70;99.90;;;;;;5077341;28;20097;-71
2022/11/20 00:44:39;;;;;;;29.02;19.55;;;-0.60;99.90;;;;;;5112695;27;20830;-71
2022/11/20 00:47:05;;;;;;;29.63;20.38;;;-0.60;99.90;;;;;;5081574;28;20059;-71
2022/11/20 00:49:30;;;;;;;29.65;20.75;;;-0.60;99.90;;;;;;5080288;28;20099;-71
2022/11/20 00:51:56;;;;;;;32.05;20.67;;;-0.60;99.90;;;;;;5078508;28;20402;-71
2022/11/20 00:54:21;;;;;;;31.30;20.58;;;-0.60;99.90;;;;;;5076371;28;20052;-71
2022/11/20 00:56:47;;;;;;;28.10;19.35;;;-0.60;99.90;;;;;;5074864;28;20085;-70
2022/11/20 00:59:13;;;;;;;28.77;18.60;;;-0.60;99.90;;;;;;5079739;28;20036;-71
2022/11/20 01:01:38;;;;;;;27.80;18.75;;;-0.60;99.90;;;;;;5079242;28;20092;-71
2022/11/20 01:04:04;;;;;;;26.70;18.98;;;-0.50;99.90;;;;;;5083689;28;20040;-71
2022/11/20 01:06:33;;;;;;;28.00;19.88;;;-0.50;99.90;;;;;;5082510;28;20180;-71
2022/11/20 01:09:01;;;;;;;26.40;17.90;;;-0.40;99.90;;;;;;5079664;28;20488;-71
2022/11/20 01:11:32;;;;;;;27.52;19.27;;;-0.30;99.90;;;;;;5084219;28;20060;-71
2022/11/20 01:13:58;;;;;;;28.30;18.40;;;-0.30;99.90;;;;;;5114985;27;20040;-71
2022/11/20 01:16:27;;;;;;;28.67;18.42;;;-0.30;99.90;;;;;;5080139;28;20419;-71
2022/11/20 01:18:55;;;;;;;30.42;19.52;;;-0.30;99.90;;;;;;5113009;27;21424;-70
2022/11/20 01:21:27;;;;;;;30.25;21.30;;;-0.20;99.90;;;;;;5111363;27;20039;-71
2022/11/20 01:23:53;;;;;;;33.90;21.33;;;-0.20;99.90;;;;;;5110890;27;20491;-71
2022/11/20 01:26:22;;;;;;;30.90;20.08;;;-0.20;99.90;;;;;;5076934;28;20039;-71
2022/11/20 01:28:48;;;;;;;28.50;19.50;;;-0.20;99.90;;;;;;5077919;28;20044;-70
2022/11/20 01:31:18;;;;;;;29.17;19.67;;;-0.20;99.90;;;;;;5075921;28;20452;-71
2022/11/20 01:33:45;;;;;;;31.38;21.15;;;-0.20;99.90;;;;;;5074989;28;20039;-71
2022/11/20 01:36:12;;;;;;;27.65;19.17;;;-0.10;99.90;;;;;;5080957;28;20585;-71
2022/11/20 01:38:38;;;;;;;31.47;19.33;;;-0.10;99.90;;;;;;5079383;28;20047;-71
2022/11/20 01:41:05;;;;;;;29.48;18.63;;;-0.10;99.90;;;;;;5083059;28;20210;-71
2022/11/20 01:43:31;;;;;;;29.60;19.73;;;-0.10;99.90;;;;;;5084714;28;20035;-71
2022/11/20 01:46:19;;;;;;;28.98;18.58;;;-0.10;99.90;;;;;;5082667;28;20044;-70
2022/11/20 01:48:58;;;;;;;30.08;19.13;;;-0.10;99.90;;;;;;5078107;28;20122;-70
2022/11/20 01:51:33;;;;;;;27.15;18.70;;;-0.10;99.90;;;;;;5078189;28;20520;-71
2022/11/20 01:54:02;;;;;;;28.00;19.30;;;-0.10;99.90;;;;;;5078005;28;20522;-71
2022/11/20 01:56:30;;;;;;;26.98;18.27;;;-0.10;99.90;;;;;;5077864;28;20123;-71
2022/11/20 01:58:59;;;;;;;28.00;18.73;;;-0.10;99.90;;;;;;5111062;27;21987;-71
2022/11/20 02:01:25;;;;;;;26.13;17.23;;;-0.10;99.90;;;;;;5078080;28;20062;-71
2022/11/20 02:03:51;;;;;;;29.50;19.20;;;0.00;99.90;;;;;;5111035;27;20499;-71
2022/11/20 02:06:23;;;;;;;29.33;22.08;;;-0.10;99.90;;;;;;5075226;28;20047;-71
2022/11/20 02:08:48;;;;;;;29.65;18.80;;;0.00;99.90;;;;;;5077658;28;20059;-71
2022/11/20 02:11:14;;;;;;;26.48;17.80;;;-0.10;99.90;;;;;;5079123;28;20048;-71
2022/11/20 02:13:43;;;;;;;30.25;20.08;;;-0.20;99.90;;;;;;5079231;28;20037;-71
2022/11/20 02:16:15;;;;;;;28.08;18.70;;;-0.20;99.90;;;;;;5106452;27;20047;-71
2022/11/20 02:18:42;;;;;;;27.92;18.33;;;-0.10;99.90;;;;;;5078165;28;20485;-71
2022/11/20 02:21:44;;;;;;;26.88;17.85;;;-0.10;99.90;;;;;;5116872;27;20070;-70
2022/11/20 02:24:18;;;;;;;27.35;19.85;;;-0.10;99.90;;;;;;5077786;28;20483;-71
2022/11/20 02:27:07;;;;;;;26.05;18.75;;;0.00;99.90;;;;;;5076766;28;20283;-71
2022/11/20 02:29:44;;;;;;;27.35;19.27;;;0.00;99.90;;;;;;5074407;28;20042;-71
2022/11/20 02:32:26;;;;;;;30.73;17.83;;;0.00;99.90;;;;;;5076108;28;20044;-71
2022/11/20 02:34:51;;;;;;;25.05;16.70;;;0.00;99.90;;;;;;5077965;28;20052;-70
2022/11/20 02:37:19;;;;;;;24.88;17.15;;;0.00;99.90;;;;;;5083611;28;20039;-71
2022/11/20 02:39:47;;;;;;;25.08;17.55;;;0.00;99.90;;;;;;5080828;28;20044;-71
2022/11/20 02:42:13;;;;;;;25.55;16.77;;;0.00;99.90;;;;;;5074981;28;20046;-71
2022/11/20 02:44:39;;;;;;;24.80;16.98;;;0.10;99.90;;;;;;5074216;28;20041;-71
2022/11/20 02:47:04;;;;;;;26.58;18.35;;;0.10;99.90;;;;;;5074380;28;20126;-71
2022/11/20 02:49:30;;;;;;;24.77;17.77;;;0.10;99.90;;;;;;5102132;27;20121;-71
2022/11/20 02:51:55;;;;;;;25.73;17.48;;;0.10;99.90;;;;;;5074156;28;20475;-70
2022/11/20 02:54:22;;;;;;;24.83;18.35;;;0.10;99.90;;;;;;5111591;27;20052;-71
2022/11/20 02:56:47;;;;;;;25.70;17.95;;;0.10;99.90;;;;;;5110648;27;20131;-71
2022/11/20 02:59:15;;;;;;;26.42;18.83;;;0.10;99.90;;;;;;5076032;28;20040;-71
2022/11/20 03:01:41;;;;;;;25.45;18.15;;;0.10;99.90;;;;;;5084295;28;20047;-71
2022/11/20 03:04:07;;;;;;;27.52;18.63;;;0.10;99.90;;;;;;5084319;28;20040;-71
2022/11/20 03:06:33;;;;;;;24.55;17.60;;;0.10;99.90;;;;;;5074445;28;20059;-71
2022/11/20 03:08:58;;;;;;;25.25;17.27;;;0.10;99.90;;;;;;5086443;28;20040;-71
2022/11/20 03:11:24;;;;;;;24.92;18.40;;;0.10;99.90;;;;;;5085931;28;20047;-71
2022/11/20 03:13:50;;;;;;;25.52;17.50;;;0.20;99.90;;;;;;5079530;28;20746;-70
2022/11/20 03:16:18;;;;;;;23.83;17.05;;;0.20;99.90;;;;;;5079145;28;21324;-71
2022/11/20 03:18:44;;;;;;;27.58;18.55;;;0.20;99.90;;;;;;5076425;28;20372;-71
2022/11/20 03:21:11;;;;;;;26.67;18.48;;;0.20;99.90;;;;;;5081252;28;20040;-71
2022/11/20 03:23:38;;;;;;;27.45;18.52;;;0.20;99.90;;;;;;5116757;28;20047;-71
2022/11/20 03:26:21;;;;;;;24.63;17.10;;;0.30;99.90;;;;;;5077054;28;20044;-71
2022/11/20 03:28:50;;;;;;;24.35;17.40;;;0.30;99.90;;;;;;5084110;28;20509;-71
2022/11/20 03:31:18;;;;;;;27.27;17.63;;;0.30;99.90;;;;;;5105531;28;20049;-71
2022/11/20 03:33:43;;;;;;;26.63;18.23;;;0.30;99.90;;;;;;5084457;28;20177;-71
2022/11/20 03:36:12;;;;;;;25.17;17.35;;;0.30;99.90;;;;;;5118511;28;20126;-71
2022/11/20 03:38:38;;;;;;;25.38;17.60;;;0.30;99.90;;;;;;5076263;28;20177;-71
2022/11/20 03:41:07;;;;;;;25.42;18.05;;;0.30;99.90;;;;;;5079075;28;20071;-71
2022/11/20 03:43:33;;;;;;;27.40;18.88;;;0.30;99.90;;;;;;5083857;28;20399;-71
2022/11/20 03:45:59;;;;;;;27.33;19.40;;;0.30;99.90;;;;;;5103842;28;20048;-70
2022/11/20 03:48:25;;;;;;;26.02;18.85;;;0.30;99.90;;;;;;5080896;28;20047;-71
2022/11/20 03:50:51;;;;;;;27.02;19.20;;;0.30;99.90;;;;;;5079055;28;20102;-71
2022/11/20 03:53:19;;;;;;;24.23;17.37;;;0.30;99.90;;;;;;5077728;28;20397;-71
2022/11/20 03:55:49;;;;;;;23.30;17.95;;;0.30;99.90;;;;;;5081140;28;20055;-71
2022/11/20 03:58:15;;;;;;;25.63;17.42;;;0.30;99.90;;;;;;5082897;28;20040;-71
2022/11/20 04:00:41;;;;;;;26.83;18.67;;;0.30;99.90;;;;;;5076314;28;20040;-70
2022/11/20 04:03:06;;;;;;;27.60;17.80;;;0.30;99.90;;;;;;5073455;28;20044;-71
2022/11/20 04:05:33;;;;;;;25.35;18.35;;;0.40;99.90;;;;;;5079048;28;20444;-71
2022/11/20 04:08:00;;;;;;;24.48;17.77;;;0.40;99.90;;;;;;5087377;28;20035;-71
2022/11/20 04:10:25;;;;;;;25.15;17.85;;;0.40;99.90;;;;;;5085182;28;20043;-71
2022/11/20 04:12:51;;;;;;;27.15;19.02;;;0.40;99.90;;;;;;5081116;28;20048;-70
2022/11/20 04:15:17;;;;;;;25.85;18.25;;;0.40;99.90;;;;;;5115405;27;20048;-71
2022/11/20 04:17:43;;;;;;;26.95;18.42;;;0.40;99.90;;;;;;5086349;28;20051;-71
2022/11/20 04:20:08;;;;;;;24.65;17.55;;;0.40;99.90;;;;;;5115444;27;20032;-71
2022/11/20 04:22:34;;;;;;;26.60;17.83;;;0.40;99.90;;;;;;5084493;28;20048;-71
2022/11/20 04:25:00;;;;;;;27.20;18.00;;;0.40;99.90;;;;;;5085185;28;20072;-71
2022/11/20 04:27:25;;;;;;;26.25;18.27;;;0.40;99.90;;;;;;5082416;28;20041;-71
2022/11/20 04:29:51;;;;;;;28.52;19.15;;;0.40;99.90;;;;;;5077070;28;20185;-71
2022/11/20 04:32:16;;;;;;;24.42;18.13;;;0.40;99.90;;;;;;5076958;28;20051;-71
2022/11/20 04:34:42;;;;;;;27.27;18.35;;;0.40;99.90;;;;;;5076162;28;20047;-71
2022/11/20 04:37:07;;;;;;;24.88;18.75;;;0.40;99.90;;;;;;5076178;28;20419;-71
2022/11/20 04:39:33;;;;;;;21.83;15.88;;;0.40;99.90;;;;;;5085605;28;20048;-71
2022/11/20 04:44:43;;;;;;;24.23;17.20;;;0.50;99.90;;;;;;5081820;28;20044;-71
2022/11/20 04:47:08;;;;;;;25.83;17.45;;;0.50;99.90;;;;;;5077334;28;20108;-71
2022/11/20 04:49:34;;;;;;;23.83;17.77;;;0.40;99.90;;;;;;5079862;28;20051;-71
2022/11/20 04:52:00;;;;;;;24.05;17.27;;;0.50;99.90;;;;;;5078220;28;20123;-71
2022/11/20 04:54:25;;;;;;;24.50;18.88;;;0.50;99.90;;;;;;5075211;28;20491;-70
2022/11/20 04:56:51;;;;;;;23.95;16.98;;;0.50;99.90;;;;;;5081133;28;20046;-71
2022/11/20 04:59:16;;;;;;;26.55;18.02;;;0.50;99.90;;;;;;5079639;28;20035;-70
2022/11/20 05:01:42;;;;;;;25.55;18.33;;;0.50;99.90;;;;;;5080245;28;20050;-71
2022/11/20 05:04:08;;;;;;;23.73;17.52;;;0.50;99.90;;;;;;5078691;28;20028;-71
2022/11/20 05:06:33;;;;;;;24.90;17.48;;;0.50;99.90;;;;;;5078149;28;20120;-70
2022/11/20 05:09:00;;;;;;;22.98;16.63;;;0.60;99.90;;;;;;5081543;28;20066;-71
2022/11/20 05:11:28;;;;;;;22.48;16.33;;;0.60;99.90;;;;;;5111912;27;20580;-71
2022/11/20 05:13:54;;;;;;;24.10;16.65;;;0.60;99.90;;;;;;5112879;27;20123;-71
2022/11/20 05:16:22;;;;;;;25.08;18.20;;;0.60;99.90;;;;;;5081231;28;20558;-71
2022/11/20 05:18:49;;;;;;;25.17;17.85;;;0.50;99.90;;;;;;5084650;28;20111;-71
2022/11/20 05:21:16;;;;;;;24.17;16.48;;;0.50;99.90;;;;;;5113339;27;20055;-71
2022/11/20 05:23:42;;;;;;;24.23;16.48;;;0.60;99.90;;;;;;5115787;27;20048;-71
2022/11/20 05:26:13;;;;;;;22.88;16.67;;;0.50;99.90;;;;;;5081768;28;20044;-71
2022/11/20 05:28:38;;;;;;;24.52;16.83;;;0.60;99.90;;;;;;5083239;28;20046;-71
2022/11/20 05:31:13;;;;;;;22.35;16.73;;;0.60;99.90;;;;;;5112008;27;20041;-71
2022/11/20 05:33:43;;;;;;;23.08;17.23;;;0.60;99.90;;;;;;5080351;28;20044;-71
2022/11/20 05:36:11;;;;;;;21.85;16.48;;;0.60;99.90;;;;;;5086951;28;20047;-71
2022/11/20 05:38:37;;;;;;;24.05;16.30;;;0.60;99.90;;;;;;5075079;28;20098;-71
2022/11/20 05:41:07;;;;;;;23.35;17.10;;;0.60;99.90;;;;;;5080590;28;20047;-71
2022/11/20 05:43:34;;;;;;;24.05;17.42;;;0.60;99.90;;;;;;5082089;28;20058;-71
2022/11/20 05:46:00;;;;;;;22.75;16.15;;;0.60;99.90;;;;;;5113029;27;20093;-71
2022/11/20 05:48:26;;;;;;;22.45;16.38;;;0.60;99.90;;;;;;5080733;28;20040;-71
2022/11/20 05:50:51;;;;;;;23.90;16.63;;;0.60;99.90;;;;;;5087054;28;20528;-71
2022/11/20 05:53:17;;;;;;;22.77;16.08;;;0.60;99.90;;;;;;5079332;28;20040;-71
2022/11/20 05:55:43;;;;;;;24.70;16.60;;;0.70;99.90;;;;;;5077687;28;20087;-71
2022/11/20 05:58:08;;;;;;;21.48;16.13;;;0.70;99.90;;;;;;5076408;28;20560;-71
2022/11/20 06:00:35;;;;;;;22.50;16.25;;;0.70;99.90;;;;;;5074162;28;20044;-71
2022/11/20 06:03:01;;;;;;;22.38;16.30;;;0.70;99.90;;;;;;5077965;28;20105;-71
2022/11/20 06:05:26;;;;;;;21.38;16.42;;;0.70;99.90;;;;;;5079918;28;20396;-71
2022/11/20 06:07:52;;;;;;;21.83;16.55;;;0.70;99.90;;;;;;5076777;28;20077;-71
2022/11/20 06:10:17;;;;;;;22.20;16.58;;;0.70;99.90;;;;;;5075498;28;20044;-71
2022/11/20 06:12:43;;;;;;;22.67;16.30;;;0.80;99.90;;;;;;5085364;28;20036;-71
2022/11/20 06:15:09;;;;;;;22.65;17.08;;;0.80;99.90;;;;;;5068327;28;20644;-71
2022/11/20 06:17:35;;;;;;;24.08;16.75;;;0.70;99.90;;;;;;5076078;28;20040;-71
2022/11/20 06:20:00;;;;;;;26.45;16.95;;;0.70;99.90;;;;;;5075691;28;20043;-71
2022/11/20 06:22:26;;;;;;;21.50;15.82;;;0.70;99.90;;;;;;5076297;28;20071;-71
2022/11/20 06:24:51;;;;;;;20.95;15.93;;;0.70;99.90;;;;;;5075147;28;20135;-71
2022/11/20 06:27:17;;;;;;;22.23;16.73;;;0.70;99.90;;;;;;5076188;28;20043;-71
2022/11/20 06:29:43;;;;;;;21.48;15.65;;;0.70;99.90;;;;;;5077516;28;20035;-71
2022/11/20 06:32:09;;;;;;;23.02;16.17;;;0.70;99.90;;;;;;5074316;28;20028;-70
2022/11/20 06:34:34;;;;;;;24.02;16.25;;;0.70;99.90;;;;;;5077484;28;20120;-71
2022/11/20 06:37:00;;;;;;;22.17;15.63;;;0.70;99.90;;;;;;5070851;28;20638;-70
2022/11/20 06:39:25;;;;;;;23.25;16.17;;;0.70;99.90;;;;;;5078988;28;20047;-70
2022/11/20 06:41:51;;;;;;;21.90;15.82;;;0.70;99.90;;;;;;5079869;28;20606;-70
2022/11/20 06:44:16;;;;;;;24.42;16.40;;;0.70;99.90;;;;;;5077843;28;20129;-70
2022/11/20 06:46:42;;;;;;;24.20;16.88;;;0.70;99.90;;;;;;5075014;28;20506;-70
2022/11/20 06:49:08;;;;;;;23.65;16.20;;;0.70;99.90;;;;;;5079741;28;20040;-70
2022/11/20 06:51:33;;;;;;;22.27;16.25;;;0.70;99.90;;;;;;5074026;28;20486;-70
2022/11/20 06:54:00;;;;;;;22.15;16.77;;;0.70;99.90;;;;;;5076972;28;20043;-71
2022/11/20 06:56:26;;;;;;;24.27;16.60;;;0.70;99.90;;;;;;5117620;27;20043;-70
2022/11/20 06:58:52;;;;;;;22.83;16.63;;;0.70;99.90;;;;;;5077135;28;20150;-70
2022/11/20 07:01:18;;;;;;;20.13;16.40;;;0.70;99.90;;;;;;5076017;28;20481;-70
2022/11/20 07:03:43;;;;;;;24.45;15.80;;;0.60;99.90;;;;;;5106259;27;20044;-70
2022/11/20 07:06:09;;;;;;;26.65;16.58;;;0.60;99.90;;;;;;5072678;28;20082;-70
2022/11/20 07:08:35;;;;;;;21.15;15.80;;;0.60;99.90;;;;;;5078210;28;20044;-70
2022/11/20 07:11:05;;;;;;;23.63;16.38;;;0.60;99.90;;;;;;5113411;27;20036;-71
2022/11/20 07:13:32;;;;;;;22.30;16.50;;;0.70;99.90;;;;;;5086790;28;20051;-70
2022/11/20 07:16:03;;;;;;;22.10;15.88;;;0.70;99.90;;;;;;5084288;28;20036;-70
2022/11/20 07:18:29;;;;;;;23.35;15.80;;;0.70;99.90;;;;;;5079053;28;20376;-70
2022/11/20 07:20:55;;;;;;;23.58;16.10;;;0.70;99.90;;;;;;5085782;28;20051;-70
2022/11/20 07:23:21;;;;;;;20.42;16.00;;;0.60;99.90;;;;;;5078672;28;20047;-70
2022/11/20 07:25:47;;;;;;;22.05;16.08;;;0.70;99.90;;;;;;5079750;28;20125;-70
2022/11/20 07:28:13;;;;;;;22.35;16.35;;;0.70;99.90;;;;;;5079538;28;20454;-71
2022/11/20 07:30:39;;;;;;;21.70;16.30;;;0.70;99.90;;;;;;5071401;28;20655;-70
2022/11/20 07:33:05;;;;;;;20.58;14.93;;;0.70;99.90;;;;;;5075107;28;20119;-71
2022/11/20 07:35:30;;;;;;;22.23;15.90;;;0.70;99.90;;;;;;5077261;28;20060;-71
2022/11/20 07:37:56;;;;;;;21.58;15.75;;;0.70;99.90;;;;;;5077853;28;20085;-71
2022/11/20 07:40:21;;;;;;;21.30;15.18;;;0.70;99.90;;;;;;5080598;28;20036;-71
2022/11/20 07:42:52;;;;;;;22.98;16.23;;;0.70;99.90;;;;;;5082887;28;20066;-71
2022/11/20 07:45:19;;;;;;;23.52;16.75;;;0.70;99.90;;;;;;5069998;28;20045;-72
2022/11/20 07:47:44;;;;;;;21.40;16.10;;;0.70;99.90;;;;;;5077881;28;20148;-71
2022/11/20 07:50:11;;;;;;;21.65;16.15;;;0.70;99.90;;;;;;5085385;28;20107;-71
2022/11/20 07:52:36;;;;;;;24.55;16.42;;;0.70;99.90;;;;;;5087521;28;20519;-70
2022/11/20 07:55:02;;;;;;;23.20;16.83;;;0.70;99.90;;;;;;5081181;28;20037;-71
2022/11/20 07:57:28;;;;;;;24.65;17.15;;;0.70;99.90;;;;;;5083643;28;20077;-71
2022/11/20 07:59:53;;;;;;;22.60;16.67;;;0.70;99.90;;;;;;5085005;28;20096;-70
2022/11/20 08:02:19;;;;;;;23.08;16.45;;;0.70;99.90;;;;;;5086109;28;20156;-70
2022/11/20 08:04:44;;;;;;;23.33;16.67;;;0.70;99.90;;;;;;5074810;28;20063;-70
2022/11/20 08:07:13;;;;;;;21.75;16.38;;;0.70;99.90;;;;;;5086829;28;20048;-72
2022/11/20 08:09:38;;;;;;;21.88;16.20;;;0.70;99.90;;;;;;5079800;28;20475;-71
2022/11/20 08:14:48;;;;;;;23.27;16.42;;;0.70;99.90;;;;;;5088829;28;20048;-76
2022/11/20 08:17:14;;;;;;;20.15;15.95;;;0.70;99.90;;;;;;5089593;28;20128;-78
2022/11/20 08:19:39;;;;;;;21.80;16.02;;;0.70;99.90;;;;;;5082095;28;20044;-74
2022/11/20 08:22:05;;;;;;;21.48;15.57;;;0.70;99.90;;;;;;5089436;28;20199;-75
2022/11/20 08:24:30;;;;;;;24.00;16.58;;;0.70;99.90;;;;;;5089314;28;20040;-73
2022/11/20 08:26:59;;;;;;;23.25;16.55;;;0.70;99.90;;;;;;5079483;28;20044;-77
2022/11/20 08:29:27;;;;;;;23.40;16.88;;;0.80;99.90;;;;;;5086630;28;20069;-77
2022/11/20 08:31:52;;;;;;;22.77;16.90;;;0.80;99.90;;;;;;5086975;28;20047;-75
2022/11/20 08:34:18;;;;;;;21.77;16.33;;;0.80;99.90;;;;;;5080462;28;20032;-76
2022/11/20 08:36:44;;;;;;;22.33;16.40;;;0.80;99.90;;;;;;5077844;28;20547;-76
2022/11/20 08:39:12;;;;;;;21.85;16.65;;;0.80;99.90;;;;;;5077082;28;20041;-76
2022/11/20 08:41:38;;;;;;;22.65;16.75;;;0.80;99.90;;;;;;5097008;28;20043;-77
2022/11/20 08:44:07;;;;;;;21.33;16.45;;;0.90;99.90;;;;;;5117220;27;20041;-79
2022/11/20 08:46:40;;;;;;;21.83;16.25;;;0.90;99.90;;;;;;5085858;28;20054;-73
2022/11/20 08:49:09;;;;;;;23.42;16.83;;;0.90;99.90;;;;;;5081116;28;20052;-72
2022/11/20 08:51:36;;;;;;;22.77;16.33;;;0.90;99.90;;;;;;5080489;28;20130;-72
2022/11/20 08:54:02;;;;;;;23.38;16.27;;;0.90;99.90;;;;;;5082980;28;20457;-72
2022/11/20 08:56:28;;;;;;;23.30;16.42;;;1.00;99.90;;;;;;5076304;28;20126;-72
2022/11/20 08:58:54;;;;;;;21.52;16.55;;;1.00;99.90;;;;;;5079510;28;20040;-72
2022/11/20 09:01:21;;;;;;;22.90;16.55;;;1.00;99.90;;;;;;5082309;28;20048;-72
2022/11/20 09:03:47;;;;;;;23.67;16.77;;;1.00;99.90;;;;;;5084970;28;20044;-72
2022/11/20 09:06:16;;;;;;;22.42;16.25;;;1.00;99.90;;;;;;5076253;28;20056;-72
2022/11/20 09:08:42;;;;;;;20.58;16.02;;;1.10;99.90;;;;;;5079094;28;20094;-72
2022/11/20 09:11:08;;;;;;;23.77;16.13;;;1.10;99.90;;;;;;5089239;28;20526;-72
2022/11/20 09:13:35;;;;;;;23.00;18.45;;;1.10;99.90;;;;;;5086023;28;20036;-72
2022/11/20 09:16:04;;;;;;;24.48;19.42;;;1.20;99.90;;;;;;5087547;28;20043;-72
2022/11/20 09:18:33;;;;;;;23.77;17.75;;;1.20;99.90;;;;;;5087071;28;20055;-72
2022/11/20 09:21:00;;;;;;;22.42;17.85;;;1.20;99.90;;;;;;5075856;28;20429;-72
2022/11/20 09:23:30;;;;;;;20.38;15.88;;;1.30;99.90;;;;;;5086288;28;20070;-72
2022/11/20 09:25:59;;;;;;;24.77;19.88;;;1.30;99.90;;;;;;5073955;28;20047;-72
2022/11/20 09:28:25;;;;;;;25.40;19.95;;;1.30;99.90;;;;;;5076385;28;20051;-72
2022/11/20 09:30:51;;;;;;;23.48;17.40;;;1.30;99.90;;;;;;5083596;28;20040;-72
2022/11/20 09:33:17;;;;;;;26.55;18.02;;;1.40;99.90;;;;;;5084853;28;20040;-72
2022/11/20 09:35:43;;;;;;;27.05;18.45;;;1.40;99.90;;;;;;5086275;28;20040;-72
2022/11/20 09:38:10;;;;;;;22.85;18.00;;;1.50;99.90;;;;;;5085929;28;20043;-72
2022/11/20 09:40:51;;;;;;;24.33;19.33;;;1.50;99.90;;;;;;5087311;28;20044;-72
2022/11/20 09:43:24;;;;;;;21.73;17.65;;;1.60;99.90;;;;;;5078883;28;20392;-72
2022/11/20 09:46:12;;;;;;;21.25;16.38;;;1.60;99.90;;;;;;5083204;28;20056;-72
2022/11/20 09:48:56;;;;;;;;;;;1.60;99.90;;;;;;5085649;28;20050;-70
2022/11/20 09:51:58;;;;;;;21.13;15.65;;;1.70;99.90;;;;;;5088225;28;20344;-72
2022/11/20 09:54:31;;;;;;;25.65;20.10;;;1.80;99.90;;;;;;5120784;27;20079;-72
2022/11/20 09:57:02;;;;;;;24.42;18.67;;;1.80;99.90;;;;;;5077999;28;20060;-72
2022/11/20 09:59:48;;;;;;;22.85;18.65;;;1.90;99.90;;;;;;5072050;28;20044;-72
2022/11/20 10:02:17;;;;;;;24.98;17.33;;;1.90;99.90;;;;;;5084042;28;20043;-71
2022/11/20 10:04:50;;;;;;;24.52;17.30;;;1.90;99.90;;;;;;5086641;28;20097;-72
2022/11/20 10:07:32;;;;;;;32.03;17.50;;;2.00;99.90;;;;;;5087036;28;20723;-71
2022/11/20 10:10:00;;;;;;;24.77;16.65;;;2.00;99.90;;;;;;5081438;28;20040;-72
2022/11/20 10:12:38;;;;;;;25.45;16.80;;;2.00;99.90;;;;;;5081162;28;20537;-72
2022/11/20 10:15:28;;;;;;;21.50;16.73;;;2.10;99.90;;;;;;5085731;28;20048;-72
2022/11/20 10:18:02;;;;;;;21.80;17.08;;;2.10;99.90;;;;;;5087197;28;20097;-72
2022/11/20 10:21:13;;;;;;;24.83;19.02;;;2.10;99.90;;;;;;5075951;28;20055;-70
2022/11/20 10:23:59;;;;;;;25.15;18.77;;;2.20;99.90;;;;;;5073290;28;20048;-77
2022/11/20 10:26:33;;;;;;;22.67;18.10;;;2.30;99.90;;;;;;5079075;28;20414;-73
2022/11/20 10:29:15;;;;;;;19.67;15.95;;;2.30;99.90;;;;;;5085363;28;20867;-73
2022/11/20 10:31:44;;;;;;;20.52;16.80;;;2.30;99.90;;;;;;5082262;28;20151;-73
2022/11/20 10:34:25;;;;;;;20.40;17.02;;;2.30;99.90;;;;;;5067467;28;20064;-75
2022/11/20 10:37:09;;;;;;;24.70;17.77;;;2.40;99.90;;;;;;5065787;28;20120;-74
2022/11/20 10:40:17;;;;;;;20.98;16.90;;;2.40;99.90;;;;;;5078912;28;20040;-75
2022/11/20 10:42:51;;;;;;;20.23;15.25;;;2.40;99.90;;;;;;5053427;28;20048;-75
2022/11/20 10:45:26;;;;;;;19.10;15.63;;;2.40;99.90;;;;;;5075939;28;20101;-78
2022/11/20 10:48:14;;;;;;;18.83;15.35;;;2.40;99.90;;;;;;5105828;27;20051;-76
2022/11/20 10:51:06;;;;;;;16.83;14.07;;;2.40;99.90;;;;;;5073432;28;20502;-76
2022/11/20 10:53:47;;;;;;;17.63;13.98;;;2.50;99.90;;;;;;5068172;28;20121;-72
2022/11/20 10:56:15;;;;;;;15.43;12.07;;;2.60;99.90;;;;;;5073888;28;20936;-73
2022/11/20 10:59:13;;;;;;;15.95;12.25;;;2.60;99.90;;;;;;5106221;27;20037;-73
2022/11/20 11:01:42;;;;;;;18.92;11.38;;;2.70;99.90;;;;;;5045826;28;20575;-75
2022/11/20 11:04:49;;;;;;;17.05;12.73;;;2.70;99.90;;;;;;5067108;28;20680;-76
2022/11/20 11:07:30;;;;;;;16.02;11.98;;;2.80;99.90;;;;;;5070129;28;20036;-73
2022/11/20 11:09:56;;;;;;;22.42;12.55;;;2.80;99.90;;;;;;5076677;28;20044;-75
2022/11/20 11:12:24;;;;;;;16.92;14.00;;;2.90;99.90;;;;;;5082757;28;20529;-76
2022/11/20 11:14:53;;;;;;;15.93;12.30;;;2.90;99.90;;;;;;5081241;28;20577;-75
2022/11/20 11:17:30;;;;;;;17.05;13.25;;;2.90;99.90;;;;;;5071656;28;20058;-76
2022/11/20 11:20:11;;;;;;;15.55;12.93;;;2.90;99.90;;;;;;5074705;28;20441;-77
2022/11/20 11:22:46;;;;;;;15.90;11.82;;;2.90;99.90;;;;;;5076375;28;20071;-77
2022/11/20 11:25:28;;;;;;;16.23;13.30;;;2.90;99.90;;;;;;5078851;28;20119;-79
2022/11/20 11:27:56;;;;;;;16.30;13.07;;;2.90;99.90;;;;;;5076749;28;20088;-79
2022/11/20 11:30:24;;;;;;;17.50;14.38;;;2.80;99.90;;;;;;5075893;28;20051;-79
2022/11/20 11:32:50;;;;;;;13.32;11.40;;;2.80;99.90;;;;;;5073573;28;20566;-78
2022/11/20 11:35:27;;;;;;;12.45;10.90;;;2.80;99.90;;;;;;5076668;28;20115;-76
2022/11/20 11:38:02;;;;;;;15.32;11.90;;;2.80;99.90;;;;;;5074280;28;20814;-76
2022/11/20 11:40:30;;;;;;;12.43;11.00;;;2.80;99.90;;;;;;5082613;28;20043;-73
2022/11/20 11:43:04;;;;;;;14.52;11.40;;;2.80;99.90;;;;;;5068063;28;20048;-78
2022/11/20 11:45:29;;;;;;;16.65;12.20;;;2.90;99.90;;;;;;5076436;28;20032;-77
2022/11/20 11:47:58;;;;;;;17.02;13.65;;;2.90;99.90;;;;;;5084238;28;20772;-76
2022/11/20 11:50:29;;;;;;;27.40;21.40;;;2.90;99.90;;;;;;5082676;28;20040;-80
2022/11/20 11:53:16;;;;;;;21.33;17.55;;;2.90;99.90;;;;;;5080900;28;20044;-76
2022/11/20 11:56:08;;;;;;;17.80;14.55;;;3.00;99.90;;;;;;5082457;28;20048;-73
2022/11/20 11:58:39;;;;;;;16.30;12.75;;;2.90;99.90;;;;;;5086174;28;20070;-73
2022/11/20 12:01:21;;;;;;;16.67;13.45;;;3.00;99.90;;;;;;5081987;28;20044;-73
2022/11/20 12:04:34;;;;;;;15.88;12.32;;;3.00;99.90;;;;;;5078968;28;20052;-74
2022/11/20 12:07:08;;;;;;;16.65;13.57;;;3.00;99.90;;;;;;5069293;28;20217;-78
2022/11/20 12:09:43;;;;;;;16.98;14.38;;;3.00;99.90;;;;;;5085732;28;20044;-76
2022/11/20 12:12:17;;;;;;;19.52;13.95;;;3.10;99.90;;;;;;5080381;28;20174;-77
2022/11/20 12:14:47;;;;;;;16.30;13.13;;;3.10;99.90;;;;;;5075770;28;20048;-73
2022/11/20 12:17:14;;;;;;;14.80;12.40;;;3.20;99.90;;;;;;5076596;28;20047;-75
2022/11/20 12:19:40;;;;;;;14.50;12.13;;;3.20;99.90;;;;;;5082326;28;20475;-71
2022/11/20 12:22:24;;;;;;;13.97;11.23;;;3.30;99.90;;;;;;5083387;28;20364;-74
2022/11/20 12:25:12;;;;;;;16.35;12.10;;;3.50;99.90;;;;;;5078945;28;20366;-74
2022/11/20 12:27:52;;;;;;;18.90;15.30;;;3.50;99.90;;;;;;5084219;28;20040;-73
2022/11/20 12:30:20;;;;;;;15.60;13.13;;;3.70;99.90;;;;;;5085024;28;20043;-76
2022/11/20 12:33:10;;;;;;;17.92;13.25;;;3.70;99.90;;;;;;5081580;28;20052;-79
2022/11/20 12:35:35;;;;;;;30.83;20.98;;;3.80;99.90;;;;;;5088830;28;20044;-79
2022/11/20 12:38:40;;;;;;;17.92;13.88;;;3.80;99.90;;;;;;5083329;28;20051;-81
2022/11/20 12:45:11;;;;;;;15.80;13.13;;;3.90;99.90;;;;;;5064827;28;20048;-77
2022/11/20 12:48:05;;;;;;;55.38;42.42;;;3.90;99.90;;;;;;5059436;28;20525;-82
2022/11/20 12:51:01;;;;;;;46.40;39.10;;;3.80;99.90;;;;;;5080011;28;20645;-80
2022/11/20 12:53:55;;;;;;;21.00;17.35;;;3.70;99.90;;;;;;5089375;28;20055;-80
2022/11/20 12:56:38;;;;;;;16.80;14.73;;;3.60;99.90;;;;;;5082401;28;20072;-80
2022/11/20 12:59:16;;;;;;;18.17;14.40;;;3.60;99.90;;;;;;5072677;28;20484;-77